Time;durP1;ratioP1;P1;durP2;ratioP2;P2;SDS_P1;SDS_P2;PMS_P1;PMS_P2;Temp;Humidity;BMP_temperature;BMP_pressure;BME280_temperature;BME280_humidity;BME280_pressure;Samples;Min_cycle;Max_cycle;Signal;HPM_P1;HPM_P2
2023/01/10 00:00:12;;;;;;;2.30;2.20;;;7.30;99.90;;;;;;5225883;28;20662;-50
2023/01/10 00:02:43;;;;;;;7.80;2.00;;;7.30;99.90;;;;;;5235040;28;20719;-51
2023/01/10 00:05:14;;;;;;;2.20;2.10;;;7.20;99.90;;;;;;5225653;28;20459;-50
2023/01/10 00:07:45;;;;;;;4.07;2.80;;;7.30;99.90;;;;;;5230718;28;20178;-50
2023/01/10 00:10:16;;;;;;;3.10;2.90;;;7.30;99.90;;;;;;5225111;28;20444;-51
2023/01/10 00:15:36;;;;;;;3.40;3.17;;;7.30;99.90;;;;;;5230257;28;20241;-50
2023/01/10 00:18:06;;;;;;;5.37;2.60;;;7.30;99.90;;;;;;5207952;28;20807;-50
2023/01/10 00:20:37;;;;;;;3.50;3.20;;;7.40;99.90;;;;;;5226191;28;20639;-51
2023/01/10 00:23:08;;;;;;;2.97;2.77;;;7.30;99.90;;;;;;5226799;28;20306;-50
2023/01/10 00:25:39;;;;;;;2.80;2.60;;;7.30;99.90;;;;;;5212118;28;20186;-51
2023/01/10 00:28:18;;;;;;;2.77;2.57;;;7.30;99.90;;;;;;5191576;28;20274;-50
2023/01/10 00:30:53;;;;;;;2.60;2.50;;;7.30;99.90;;;;;;5215014;28;20437;-51
2023/01/10 00:33:24;;;;;;;2.27;2.17;;;7.30;99.90;;;;;;5228971;28;20504;-50
2023/01/10 00:35:55;;;;;;;7.50;2.60;;;7.30;99.90;;;;;;5238589;28;20431;-51
2023/01/10 00:38:25;;;;;;;2.50;2.40;;;7.30;99.90;;;;;;5216850;28;20675;-52
2023/01/10 00:40:56;;;;;;;2.70;2.50;;;7.20;99.90;;;;;;5222318;28;20339;-51
2023/01/10 00:46:16;;;;;;;3.53;3.00;;;7.20;99.90;;;;;;5232919;28;20417;-50
2023/01/10 00:48:47;;;;;;;2.87;2.67;;;7.20;99.90;;;;;;5224170;28;20866;-50
2023/01/10 00:51:18;;;;;;;5.13;3.17;;;7.20;99.90;;;;;;5231278;28;20194;-51
2023/01/10 00:53:48;;;;;;;2.50;2.40;;;7.20;99.90;;;;;;5235026;28;20195;-50
2023/01/10 00:56:19;;;;;;;3.33;2.80;;;7.20;99.90;;;;;;5214000;28;20243;-52
2023/01/10 00:58:49;;;;;;;3.23;2.93;;;7.10;99.90;;;;;;5199175;28;20213;-51
2023/01/10 01:01:20;;;;;;;6.70;3.00;;;7.20;99.90;;;;;;5212454;28;20241;-51
2023/01/10 01:03:51;;;;;;;3.70;3.10;;;7.10;99.90;;;;;;5237546;28;20190;-50
2023/01/10 01:06:22;;;;;;;3.00;2.87;;;7.10;99.90;;;;;;5214110;28;20436;-50
2023/01/10 01:08:52;;;;;;;3.83;3.53;;;7.10;99.90;;;;;;5223676;28;21638;-51
2023/01/10 01:11:24;;;;;;;4.30;3.20;;;7.10;99.90;;;;;;5211566;28;20201;-51
2023/01/10 01:13:54;;;;;;;5.20;3.07;;;7.20;99.90;;;;;;5230890;28;20202;-51
2023/01/10 01:16:25;;;;;;;2.47;2.27;;;7.10;99.90;;;;;;5210165;28;20532;-51
2023/01/10 01:18:57;;;;;;;3.83;2.50;;;7.00;99.90;;;;;;5229757;28;20214;-51
2023/01/10 01:21:27;;;;;;;8.87;3.10;;;7.10;99.90;;;;;;5210678;28;21013;-50
2023/01/10 01:23:58;;;;;;;2.70;2.47;;;7.00;99.90;;;;;;5216059;28;20437;-50
2023/01/10 01:26:28;;;;;;;2.87;2.70;;;7.00;99.90;;;;;;5228112;28;20290;-51
2023/01/10 01:28:59;;;;;;;3.13;2.83;;;6.80;99.90;;;;;;5213647;28;20234;-51
2023/01/10 01:31:30;;;;;;;5.23;3.20;;;6.70;99.90;;;;;;5227086;28;20187;-50
2023/01/10 01:34:00;;;;;;;3.07;2.77;;;6.70;99.90;;;;;;5228183;28;20228;-50
2023/01/10 01:36:31;;;;;;;4.53;3.70;;;6.70;99.90;;;;;;5221626;28;20186;-49
2023/01/10 01:39:02;;;;;;;3.77;3.47;;;6.60;99.90;;;;;;5225594;28;20210;-50
2023/01/10 01:44:23;;;;;;;3.37;3.10;;;6.40;99.90;;;;;;5228115;28;20434;-50
2023/01/10 01:47:04;;;;;;;3.63;2.70;;;6.30;99.90;;;;;;5216122;28;20660;-50
2023/01/10 01:49:39;;;;;;;5.23;2.97;;;6.30;99.90;;;;;;5227365;28;20968;-51
2023/01/10 01:52:21;;;;;;;6.00;3.80;;;6.30;99.90;;;;;;5225578;28;20440;-50
2023/01/10 01:54:56;;;;;;;3.47;3.20;;;6.30;99.90;;;;;;5212808;28;20507;-51
2023/01/10 01:57:29;;;;;;;3.23;2.70;;;6.40;99.90;;;;;;5235956;28;20889;-50
2023/01/10 02:00:03;;;;;;;3.20;3.00;;;6.40;99.90;;;;;;5234428;28;20468;-50
2023/01/10 02:02:39;;;;;;;3.50;3.30;;;6.40;99.90;;;;;;5234049;28;20459;-50
2023/01/10 02:05:12;;;;;;;4.70;3.17;;;6.40;99.90;;;;;;5212517;28;20436;-51
2023/01/10 02:07:47;;;;;;;3.40;3.07;;;6.40;99.90;;;;;;5229049;28;20427;-51
2023/01/10 02:10:34;;;;;;;3.93;3.20;;;6.30;99.90;;;;;;5227064;28;20442;-50
2023/01/10 02:13:07;;;;;;;3.80;2.97;;;6.30;99.90;;;;;;5208718;28;20447;-50
2023/01/10 02:15:38;;;;;;;5.93;3.70;;;6.30;99.90;;;;;;5228863;28;20462;-50
2023/01/10 02:18:09;;;;;;;9.30;3.57;;;6.30;99.90;;;;;;5228678;28;21152;-50
2023/01/10 02:20:46;;;;;;;4.73;3.70;;;6.20;99.90;;;;;;5230872;28;20198;-49
2023/01/10 02:23:46;;;;;;;3.93;3.53;;;6.00;99.90;;;;;;5228743;28;20498;-50
2023/01/10 02:26:50;;;;;;;3.40;3.10;;;5.90;99.90;;;;;;5226474;28;20489;-50
2023/01/10 02:29:42;;;;;;;3.67;3.27;;;5.90;99.90;;;;;;5228464;28;20452;-49
2023/01/10 02:32:18;;;;;;;4.30;3.90;;;5.70;99.90;;;;;;5228850;28;20786;-50
2023/01/10 02:35:02;;;;;;;9.40;4.70;;;5.60;99.90;;;;;;5229822;28;20465;-50
2023/01/10 02:38:05;;;;;;;7.50;3.90;;;5.60;99.90;;;;;;5237556;28;20962;-49
2023/01/10 02:40:50;;;;;;;10.00;4.10;;;5.60;99.90;;;;;;5183411;28;20453;-50
2023/01/10 02:43:30;;;;;;;4.77;4.17;;;5.50;99.90;;;;;;5225747;28;20440;-50
2023/01/10 02:46:27;;;;;;;4.30;3.60;;;5.60;99.90;;;;;;5232868;28;20464;-50
2023/01/10 02:48:57;;;;;;;4.50;4.10;;;5.60;99.90;;;;;;5226606;28;20448;-49
2023/01/10 02:51:32;;;;;;;8.03;4.37;;;5.60;99.90;;;;;;5224335;28;20841;-51
2023/01/10 02:54:08;;;;;;;8.47;3.73;;;5.70;99.90;;;;;;5228305;28;20188;-50
2023/01/10 02:56:54;;;;;;;3.50;3.20;;;5.60;99.90;;;;;;5210098;28;20446;-49
2023/01/10 02:59:45;;;;;;;4.97;3.73;;;5.60;99.90;;;;;;5228214;28;20973;-50
2023/01/10 03:02:40;;;;;;;3.70;3.40;;;5.50;99.90;;;;;;5225956;28;20464;-51
2023/01/10 03:05:19;;;;;;;5.80;3.40;;;5.60;99.90;;;;;;5228994;28;20444;-50
2023/01/10 03:08:06;;;;;;;3.60;3.30;;;5.70;99.90;;;;;;5227841;28;20446;-50
2023/01/10 03:10:59;;;;;;;14.03;3.50;;;5.80;99.90;;;;;;5235021;28;20464;-50
2023/01/10 03:13:33;;;;;;;5.57;3.80;;;5.90;99.90;;;;;;5209645;28;21726;-50
2023/01/10 03:16:07;;;;;;;3.60;3.30;;;5.90;99.90;;;;;;5231985;28;20428;-51
2023/01/10 03:18:59;;;;;;;5.47;3.67;;;6.00;99.90;;;;;;5228792;28;20553;-49
2023/01/10 03:21:32;;;;;;;4.33;3.33;;;5.90;99.90;;;;;;5212856;28;20909;-50
2023/01/10 03:24:35;;;;;;;7.50;4.57;;;5.90;99.90;;;;;;5215076;28;20429;-50
2023/01/10 03:27:08;;;;;;;5.23;4.10;;;6.00;99.90;;;;;;5227770;28;20475;-50
2023/01/10 03:29:50;;;;;;;6.10;4.30;;;6.00;99.90;;;;;;5227268;28;20453;-52
2023/01/10 03:32:28;;;;;;;6.63;4.17;;;5.90;99.90;;;;;;5231018;28;20493;-50
2023/01/10 03:35:01;;;;;;;10.57;3.70;;;6.10;99.90;;;;;;5212189;28;20450;-50
2023/01/10 03:38:00;;;;;;;4.50;4.10;;;6.10;99.90;;;;;;5229143;28;21663;-53
2023/01/10 03:41:00;;;;;;;7.70;4.63;;;6.20;99.90;;;;;;5234971;28;20920;-50
2023/01/10 03:47:04;;;;;;;7.30;4.00;;;6.20;99.90;;;;;;5236210;28;20809;-50
2023/01/10 03:49:39;;;;;;;4.37;3.80;;;6.30;99.90;;;;;;5223413;28;20492;-49
2023/01/10 03:52:13;;;;;;;5.93;3.67;;;6.30;99.90;;;;;;5212990;28;20814;-51
2023/01/10 03:54:45;;;;;;;10.47;4.60;;;6.30;99.90;;;;;;5208991;28;20497;-50
2023/01/10 03:57:21;;;;;;;5.47;4.17;;;6.30;99.90;;;;;;5212092;28;20437;-51
2023/01/10 03:59:56;;;;;;;8.83;3.63;;;6.40;99.90;;;;;;5225118;28;20556;-51
2023/01/10 04:02:29;;;;;;;13.50;5.00;;;6.40;99.90;;;;;;5227636;28;20446;-50
2023/01/10 04:05:00;;;;;;;9.23;3.50;;;6.40;99.90;;;;;;5227206;28;20431;-51
2023/01/10 04:07:31;;;;;;;6.80;3.93;;;6.60;99.90;;;;;;5209176;28;20485;-51
2023/01/10 04:10:06;;;;;;;8.80;3.80;;;6.50;99.90;;;;;;5228236;28;20187;-50
2023/01/10 04:12:36;;;;;;;5.67;4.63;;;6.50;99.90;;;;;;5230710;28;20689;-50
2023/01/10 04:15:08;;;;;;;5.43;3.97;;;6.60;99.90;;;;;;5225766;28;20518;-51
2023/01/10 04:17:38;;;;;;;4.47;4.07;;;6.60;99.90;;;;;;5233716;28;20183;-51
2023/01/10 04:20:10;;;;;;;3.60;3.30;;;6.60;99.90;;;;;;5231030;28;20446;-51
2023/01/10 04:22:40;;;;;;;4.73;4.33;;;6.60;99.90;;;;;;5230476;28;20269;-48
2023/01/10 04:25:11;;;;;;;7.27;3.80;;;6.60;99.90;;;;;;5233091;28;20845;-50
2023/01/10 04:27:41;;;;;;;5.33;3.73;;;6.70;99.90;;;;;;5226184;28;20184;-51
2023/01/10 04:30:12;;;;;;;10.80;4.80;;;6.60;99.90;;;;;;5212858;28;20193;-49
2023/01/10 04:32:43;;;;;;;9.20;4.20;;;6.50;99.90;;;;;;5232749;28;20189;-50
2023/01/10 04:35:14;;;;;;;7.73;5.00;;;6.60;99.90;;;;;;5222578;28;20186;-50
2023/01/10 04:37:44;;;;;;;11.87;5.13;;;6.60;99.90;;;;;;5215830;28;20190;-50
2023/01/10 04:40:18;;;;;;;6.17;5.00;;;6.50;99.90;;;;;;5213081;28;20190;-50
2023/01/10 04:42:49;;;;;;;5.70;4.90;;;6.50;99.90;;;;;;5217992;28;20189;-49
2023/01/10 04:45:20;;;;;;;11.63;4.87;;;6.40;99.90;;;;;;5216837;28;20442;-51
2023/01/10 04:47:51;;;;;;;17.83;4.80;;;6.30;99.90;;;;;;5216355;28;20202;-51
2023/01/10 04:50:22;;;;;;;10.40;4.00;;;6.20;99.90;;;;;;5214686;28;20927;-49
2023/01/10 04:52:53;;;;;;;7.37;4.73;;;6.30;99.90;;;;;;5213844;28;20320;-48
2023/01/10 04:55:24;;;;;;;8.10;4.97;;;6.20;99.90;;;;;;5224697;28;20450;-51
2023/01/10 04:57:54;;;;;;;13.23;5.43;;;6.20;99.90;;;;;;5231657;28;20499;-50
2023/01/10 05:00:25;;;;;;;10.70;5.30;;;6.20;99.90;;;;;;5223272;28;20202;-50
2023/01/10 05:02:56;;;;;;;11.30;5.00;;;6.20;99.90;;;;;;5235189;28;20186;-48
2023/01/10 05:05:27;;;;;;;7.87;4.83;;;6.40;99.90;;;;;;5211320;28;20186;-51
2023/01/10 05:07:58;;;;;;;12.77;5.20;;;6.40;99.90;;;;;;5228508;28;20444;-51
2023/01/10 05:10:29;;;;;;;8.73;5.00;;;6.40;99.90;;;;;;5212055;28;20456;-49
2023/01/10 05:12:59;;;;;;;13.73;5.67;;;6.50;99.90;;;;;;5237821;28;20658;-51
2023/01/10 05:15:30;;;;;;;5.30;4.80;;;6.40;99.90;;;;;;5221844;28;20186;-48
2023/01/10 05:18:00;;;;;;;13.93;5.37;;;6.50;99.90;;;;;;5214161;28;20287;-52
2023/01/10 05:20:31;;;;;;;19.77;5.70;;;6.40;99.90;;;;;;5231479;28;20194;-52
2023/01/10 05:23:02;;;;;;;19.97;5.40;;;6.30;99.90;;;;;;5229204;28;20626;-51
2023/01/10 05:25:33;;;;;;;11.83;5.40;;;6.30;99.90;;;;;;5225023;28;20209;-51
2023/01/10 05:28:03;;;;;;;10.50;6.03;;;6.40;99.90;;;;;;5235977;28;20313;-49
2023/01/10 05:30:34;;;;;;;14.80;6.57;;;6.40;99.90;;;;;;5225949;28;20568;-49
2023/01/10 05:33:05;;;;;;;13.30;6.40;;;6.40;99.90;;;;;;5222716;28;20791;-51
2023/01/10 05:35:35;;;;;;;13.43;6.00;;;6.50;99.90;;;;;;5246318;28;20703;-51
2023/01/10 05:38:06;;;;;;;15.13;5.10;;;6.40;99.90;;;;;;5238461;28;20229;-50
2023/01/10 05:40:37;;;;;;;12.17;5.70;;;6.50;99.90;;;;;;5238218;28;20210;-50
2023/01/10 05:43:11;;;;;;;16.20;5.67;;;6.50;99.90;;;;;;5235477;28;20303;-51
2023/01/10 05:45:41;;;;;;;15.13;6.43;;;6.50;99.90;;;;;;5241756;28;20182;-49
2023/01/10 05:48:12;;;;;;;10.30;5.80;;;6.60;99.90;;;;;;5220297;28;20455;-51
2023/01/10 05:50:42;;;;;;;10.57;6.00;;;6.60;99.90;;;;;;5235460;28;20554;-50
2023/01/10 05:53:13;;;;;;;12.80;6.00;;;6.50;99.90;;;;;;5211380;28;20185;-50
2023/01/10 05:55:51;;;;;;;12.97;6.53;;;6.70;99.90;;;;;;5226671;28;20182;-51
2023/01/10 05:58:22;;;;;;;10.00;6.00;;;6.60;99.90;;;;;;5219224;28;20205;-50
2023/01/10 06:00:55;;;;;;;10.63;5.87;;;6.70;99.90;;;;;;5218116;28;20471;-53
2023/01/10 06:03:26;;;;;;;13.60;5.77;;;6.60;99.90;;;;;;5235916;28;20516;-50
2023/01/10 06:05:57;;;;;;;37.20;6.13;;;6.70;99.90;;;;;;5235414;28;20948;-51
2023/01/10 06:08:28;;;;;;;12.40;5.37;;;6.60;99.90;;;;;;5236403;28;20559;-49
2023/01/10 06:10:58;;;;;;;11.23;5.40;;;6.60;99.90;;;;;;5228730;28;20182;-50
2023/01/10 06:13:29;;;;;;;10.73;6.00;;;6.70;99.90;;;;;;5223775;28;20540;-50
2023/01/10 06:16:00;;;;;;;12.53;5.10;;;6.70;99.90;;;;;;5246183;28;21021;-51
2023/01/10 06:18:30;;;;;;;14.63;6.60;;;6.70;99.90;;;;;;5232153;28;20970;-49
2023/01/10 06:21:01;;;;;;;22.10;6.03;;;6.70;99.90;;;;;;5230305;28;20202;-51
2023/01/10 06:23:32;;;;;;;22.93;6.33;;;6.70;99.90;;;;;;5242453;28;23096;-48
2023/01/10 06:26:03;;;;;;;15.70;6.87;;;6.60;99.90;;;;;;5233216;28;23023;-51
2023/01/10 06:28:33;;;;;;;12.10;6.37;;;6.70;99.90;;;;;;5232771;28;20336;-51
2023/01/10 06:31:04;;;;;;;11.83;5.20;;;6.60;99.90;;;;;;5216131;28;20182;-51
2023/01/10 06:33:35;;;;;;;19.10;6.47;;;6.60;99.90;;;;;;5198405;28;20232;-51
2023/01/10 06:36:06;;;;;;;19.20;6.13;;;6.40;99.90;;;;;;5229077;28;20284;-50
2023/01/10 06:38:37;;;;;;;10.97;6.50;;;6.40;99.90;;;;;;5248428;28;20452;-51
2023/01/10 06:41:13;;;;;;;20.63;5.83;;;6.30;99.90;;;;;;5237150;28;20477;-50
2023/01/10 06:43:45;;;;;;;19.03;6.80;;;6.30;99.90;;;;;;5213725;28;20184;-50
2023/01/10 06:46:18;;;;;;;14.83;6.50;;;6.30;99.90;;;;;;5238706;28;21790;-48
2023/01/10 06:48:48;;;;;;;11.47;6.53;;;6.30;99.90;;;;;;5244556;28;20460;-51
2023/01/10 06:51:19;;;;;;;10.67;6.03;;;6.40;99.90;;;;;;5253577;28;20775;-50
2023/01/10 06:53:50;;;;;;;22.80;6.87;;;6.50;99.90;;;;;;5247857;28;20285;-51
2023/01/10 06:56:20;;;;;;;16.27;6.10;;;6.50;99.90;;;;;;5252659;28;20261;-50
2023/01/10 06:58:51;;;;;;;21.67;8.17;;;6.50;99.90;;;;;;5252235;28;20205;-51
2023/01/10 07:01:22;;;;;;;16.37;8.03;;;6.50;99.90;;;;;;5228832;28;20208;-51
2023/01/10 07:03:52;;;;;;;18.70;6.00;;;6.60;99.90;;;;;;5241044;28;20219;-51
2023/01/10 07:06:23;;;;;;;13.20;6.13;;;6.60;99.90;;;;;;5227932;28;20177;-51
2023/01/10 07:08:54;;;;;;;28.57;6.57;;;6.70;99.90;;;;;;5241864;28;20189;-51
2023/01/10 07:11:25;;;;;;;10.10;6.37;;;6.70;99.90;;;;;;5248903;28;20192;-50
2023/01/10 07:13:55;;;;;;;23.33;7.20;;;6.70;99.90;;;;;;5260790;28;20432;-52
2023/01/10 07:16:26;;;;;;;18.90;7.60;;;6.60;99.90;;;;;;5236965;28;20290;-52
2023/01/10 07:18:58;;;;;;;28.63;6.87;;;6.50;99.90;;;;;;5244376;28;20214;-51
2023/01/10 07:21:29;;;;;;;18.13;8.03;;;6.50;99.90;;;;;;5234568;28;20296;-52
2023/01/10 07:23:59;;;;;;;12.47;6.50;;;6.60;99.90;;;;;;5245574;28;21067;-52
2023/01/10 07:26:30;;;;;;;23.90;7.77;;;6.60;99.90;;;;;;5226592;28;20265;-51
2023/01/10 07:29:01;;;;;;;14.27;6.90;;;6.70;99.90;;;;;;5233359;28;20681;-51
2023/01/10 07:31:31;;;;;;;24.60;7.07;;;6.70;99.90;;;;;;5238004;28;20181;-51
2023/01/10 07:34:02;;;;;;;19.23;7.23;;;6.60;99.90;;;;;;5231748;28;20443;-53
2023/01/10 07:36:35;;;;;;;15.40;6.90;;;6.60;99.90;;;;;;5224081;28;20200;-54
2023/01/10 07:39:05;;;;;;;26.23;7.27;;;6.70;99.90;;;;;;5237244;28;20218;-51
2023/01/10 07:41:36;;;;;;;13.00;7.33;;;6.60;99.90;;;;;;5254837;28;20463;-52
2023/01/10 07:44:07;;;;;;;35.53;8.90;;;6.70;99.90;;;;;;5231235;28;20204;-52
2023/01/10 07:46:37;;;;;;;24.97;8.33;;;6.70;99.90;;;;;;5253651;28;20225;-51
2023/01/10 07:49:08;;;;;;;12.87;7.80;;;6.60;99.90;;;;;;5248194;28;20202;-52
2023/01/10 07:51:39;;;;;;;20.57;7.90;;;6.70;99.90;;;;;;5252685;28;20186;-51
2023/01/10 07:54:10;;;;;;;18.60;8.20;;;6.60;99.90;;;;;;5237704;28;21503;-53
2023/01/10 07:56:41;;;;;;;11.20;6.90;;;6.60;99.90;;;;;;5246489;28;20188;-52
2023/01/10 07:59:12;;;;;;;13.70;7.47;;;6.70;99.90;;;;;;5221433;28;20261;-52
2023/01/10 08:01:42;;;;;;;23.50;8.40;;;6.70;99.90;;;;;;5230012;28;20210;-52
2023/01/10 08:04:13;;;;;;;20.53;7.70;;;6.80;99.90;;;;;;5237118;28;20456;-51
2023/01/10 08:06:43;;;;;;;16.37;7.97;;;6.90;99.90;;;;;;5219376;28;20206;-53
2023/01/10 08:09:14;;;;;;;20.00;7.30;;;6.90;99.90;;;;;;5248098;28;20223;-51
2023/01/10 08:11:45;;;;;;;19.53;7.80;;;6.80;99.90;;;;;;5235176;28;20248;-52
2023/01/10 08:14:16;;;;;;;11.90;7.37;;;6.80;99.90;;;;;;5242356;28;20329;-53
2023/01/10 08:16:46;;;;;;;16.37;7.40;;;6.90;99.90;;;;;;5241348;28;20218;-52
2023/01/10 08:19:17;;;;;;;14.47;8.17;;;7.10;99.90;;;;;;5246383;28;20318;-53
2023/01/10 08:21:47;;;;;;;14.03;7.83;;;7.00;99.90;;;;;;5235537;28;20233;-53
2023/01/10 08:24:18;;;;;;;26.13;7.73;;;7.10;99.90;;;;;;5230174;28;20650;-52
2023/01/10 08:26:49;;;;;;;24.70;7.57;;;7.20;99.90;;;;;;5233404;28;20187;-52
2023/01/10 08:29:19;;;;;;;14.80;7.00;;;7.20;99.90;;;;;;5248158;28;20206;-54
2023/01/10 08:31:50;;;;;;;11.17;6.63;;;7.20;99.90;;;;;;5231836;28;20189;-53
2023/01/10 08:34:21;;;;;;;22.23;7.97;;;7.20;99.90;;;;;;5248652;28;20194;-52
2023/01/10 08:36:53;;;;;;;13.00;7.80;;;7.20;99.90;;;;;;5230872;28;20200;-51
2023/01/10 08:39:25;;;;;;;14.87;7.17;;;7.30;99.90;;;;;;5246944;28;20692;-51
2023/01/10 08:41:56;;;;;;;9.67;7.47;;;7.40;99.90;;;;;;5220976;28;20471;-50
2023/01/10 08:44:27;;;;;;;20.57;8.27;;;7.30;99.90;;;;;;5243928;28;20428;-50
2023/01/10 08:46:57;;;;;;;12.63;6.53;;;7.30;99.90;;;;;;5235150;28;21174;-50
2023/01/10 08:49:28;;;;;;;23.37;10.57;;;7.20;99.90;;;;;;5218436;28;20797;-53
2023/01/10 08:52:01;;;;;;;15.07;7.53;;;7.30;99.90;;;;;;5219454;28;20178;-51
2023/01/10 08:54:34;;;;;;;14.00;7.73;;;7.30;99.90;;;;;;5226439;28;20265;-53
2023/01/10 08:57:05;;;;;;;14.53;6.90;;;7.30;99.90;;;;;;5234993;28;20440;-51
2023/01/10 08:59:35;;;;;;;15.00;6.90;;;7.40;99.90;;;;;;5240460;28;21572;-52
2023/01/10 09:02:11;;;;;;;14.10;6.40;;;7.60;99.90;;;;;;5244916;28;20198;-52
2023/01/10 09:04:42;;;;;;;19.20;7.27;;;7.80;99.90;;;;;;5229734;28;20952;-50
2023/01/10 09:07:13;;;;;;;15.10;6.90;;;7.70;99.90;;;;;;5254437;28;20424;-53
2023/01/10 09:09:43;;;;;;;10.00;6.23;;;7.90;99.90;;;;;;5232520;28;20198;-49
2023/01/10 09:15:05;;;;;;;20.27;7.40;;;7.90;99.90;;;;;;5249472;28;20274;-52
2023/01/10 09:17:36;;;;;;;11.57;6.80;;;7.90;99.90;;;;;;5231057;28;20467;-51
2023/01/10 09:20:08;;;;;;;25.73;7.80;;;7.90;99.90;;;;;;5228783;28;20575;-53
2023/01/10 09:22:39;;;;;;;16.30;6.67;;;7.90;99.90;;;;;;5250277;28;20638;-48
2023/01/10 09:25:10;;;;;;;7.60;6.10;;;7.90;99.90;;;;;;5237542;28;20515;-51
2023/01/10 09:27:40;;;;;;;9.90;6.17;;;8.00;99.90;;;;;;5251084;28;20189;-52
2023/01/10 09:30:12;;;;;;;11.77;5.50;;;8.10;99.90;;;;;;5245333;28;20186;-52
2023/01/10 09:32:42;;;;;;;10.00;5.40;;;8.00;99.90;;;;;;5215814;28;20170;-50
2023/01/10 09:35:13;;;;;;;11.27;6.30;;;8.10;99.90;;;;;;5213326;28;20998;-51
2023/01/10 09:37:44;;;;;;;8.47;5.87;;;8.00;99.90;;;;;;5234584;28;20202;-49
2023/01/10 09:40:24;;;;;;;8.37;5.20;;;8.00;99.90;;;;;;5233574;28;20185;-51
2023/01/10 09:43:15;;;;;;;21.20;5.70;;;8.00;99.90;;;;;;5251259;28;20665;-52
2023/01/10 09:46:01;;;;;;;13.10;7.23;;;7.90;99.90;;;;;;5237757;28;20424;-50
2023/01/10 09:48:59;;;;;;;12.07;5.80;;;7.60;99.90;;;;;;5249788;28;20491;-52
2023/01/10 09:51:38;;;;;;;14.83;6.40;;;7.80;99.90;;;;;;5249091;28;20445;-51
2023/01/10 09:54:22;;;;;;;13.90;5.63;;;7.90;99.90;;;;;;5230648;28;20424;-51
2023/01/10 09:56:54;;;;;;;12.57;6.10;;;7.80;99.90;;;;;;5249151;28;20439;-50
2023/01/10 09:59:34;;;;;;;10.07;5.13;;;8.00;99.90;;;;;;5250938;28;20439;-50
2023/01/10 10:02:19;;;;;;;9.07;5.30;;;8.20;99.90;;;;;;5249421;28;20455;-52
2023/01/10 10:05:27;;;;;;;7.13;5.20;;;8.10;99.90;;;;;;5252079;28;20429;-51
2023/01/10 10:08:01;;;;;;;14.90;4.97;;;8.10;99.90;;;;;;5226270;28;20456;-51
2023/01/10 10:10:39;;;;;;;11.83;5.60;;;8.20;99.90;;;;;;5226386;28;20852;-52
2023/01/10 10:13:35;;;;;;;10.70;6.17;;;8.10;99.90;;;;;;5220761;28;20794;-52
2023/01/10 10:16:18;;;;;;;10.73;5.10;;;8.10;99.90;;;;;;5240192;28;20420;-51
2023/01/10 10:19:13;;;;;;;18.33;5.97;;;8.10;99.90;;;;;;5249709;28;20468;-51
2023/01/10 10:22:21;;;;;;;8.33;4.60;;;8.20;99.90;;;;;;5238437;28;20465;-51
2023/01/10 10:25:19;;;;;;;8.30;5.63;;;8.20;99.90;;;;;;5241102;28;20521;-51
2023/01/10 10:27:59;;;;;;;22.53;6.90;;;8.40;99.90;;;;;;5242830;28;20542;-51
2023/01/10 10:30:48;;;;;;;13.00;6.93;;;8.30;99.90;;;;;;5250210;28;20471;-49
2023/01/10 10:33:43;;;;;;;12.53;5.60;;;8.30;99.90;;;;;;5252197;28;20790;-51
2023/01/10 10:36:23;;;;;;;15.27;7.60;;;8.30;99.90;;;;;;5249136;28;20560;-52
2023/01/10 10:39:00;;;;;;;15.27;5.73;;;8.20;99.90;;;;;;5231577;28;20452;-50
2023/01/10 10:41:39;;;;;;;12.70;6.50;;;8.20;99.90;;;;;;5230729;28;20992;-52
2023/01/10 10:44:31;;;;;;;24.03;5.63;;;8.10;99.90;;;;;;5246780;28;20437;-49
2023/01/10 10:47:09;;;;;;;10.60;5.00;;;8.10;99.90;;;;;;5232259;28;20462;-51
2023/01/10 10:49:43;;;;;;;12.47;6.00;;;8.20;99.90;;;;;;5241305;28;20468;-51
2023/01/10 10:52:31;;;;;;;13.67;5.77;;;8.40;99.90;;;;;;5244819;28;20433;-50
2023/01/10 10:55:04;;;;;;;19.40;6.10;;;8.50;99.90;;;;;;5243118;28;20435;-52
2023/01/10 10:57:38;;;;;;;21.93;6.60;;;8.50;99.90;;;;;;5256071;28;20452;-51
2023/01/10 11:00:14;;;;;;;22.97;7.93;;;8.70;99.90;;;;;;5246659;28;20505;-52
2023/01/10 11:02:50;;;;;;;13.77;6.00;;;8.40;99.90;;;;;;5229655;28;20495;-50
2023/01/10 11:05:30;;;;;;;11.77;4.83;;;8.40;99.90;;;;;;5241601;28;20444;-53
2023/01/10 11:08:12;;;;;;;23.87;4.97;;;8.30;99.90;;;;;;5244438;28;20448;-51
2023/01/10 11:10:47;;;;;;;11.83;3.50;;;8.40;99.90;;;;;;5242909;28;20432;-52
2023/01/10 11:13:27;;;;;;;14.77;4.83;;;8.60;99.90;;;;;;5231029;28;20431;-53
2023/01/10 11:15:59;;;;;;;10.50;4.03;;;8.70;99.90;;;;;;5244021;28;20538;-52
2023/01/10 11:18:32;;;;;;;10.13;3.70;;;9.00;99.90;;;;;;5230289;28;20581;-53
2023/01/10 11:21:07;;;;;;;11.40;4.80;;;9.10;99.90;;;;;;5245699;28;20479;-54
2023/01/10 11:23:52;;;;;;;24.07;5.30;;;9.20;99.90;;;;;;5238167;28;20456;-53
2023/01/10 11:26:22;;;;;;;14.30;5.33;;;9.40;99.90;;;;;;5221889;28;20530;-52
2023/01/10 11:29:04;;;;;;;28.10;10.67;;;9.50;99.90;;;;;;5250723;28;20547;-52
2023/01/10 11:31:36;;;;;;;29.23;10.87;;;9.60;99.90;;;;;;5244611;28;20192;-53
2023/01/10 11:34:18;;;;;;;20.63;5.80;;;9.60;99.90;;;;;;5226697;28;21280;-54
2023/01/10 11:37:04;;;;;;;20.20;4.20;;;9.30;99.90;;;;;;5240162;28;20440;-51
2023/01/10 11:39:35;;;;;;;10.70;4.27;;;9.40;99.90;;;;;;5251639;28;20458;-54
2023/01/10 11:42:38;;;;;;;9.70;4.20;;;9.70;99.90;;;;;;5225275;28;20459;-50
2023/01/10 11:45:17;;;;;;;21.53;6.30;;;9.60;99.90;;;;;;5200295;28;20244;-53
2023/01/10 11:47:58;;;;;;;11.27;4.70;;;9.60;99.90;;;;;;5256559;28;20984;-53
2023/01/10 11:50:35;;;;;;;13.00;4.80;;;9.60;99.90;;;;;;5228191;28;20463;-51
2023/01/10 11:53:22;;;;;;;6.87;3.33;;;9.60;99.90;;;;;;5253368;28;21059;-53
2023/01/10 11:55:52;;;;;;;15.07;3.50;;;9.40;99.90;;;;;;5236341;28;20428;-54
2023/01/10 11:58:32;;;;;;;5.40;2.90;;;9.40;99.90;;;;;;5252959;28;20826;-53
2023/01/10 12:01:03;;;;;;;17.17;4.73;;;9.40;99.90;;;;;;5216325;28;20197;-53
2023/01/10 12:03:37;;;;;;;12.87;5.80;;;9.50;99.90;;;;;;5236580;28;20786;-53
2023/01/10 12:06:15;;;;;;;14.33;4.50;;;9.50;99.90;;;;;;5251180;28;20459;-54
2023/01/10 12:08:45;;;;;;;26.10;15.50;;;9.40;99.90;;;;;;5253387;28;20457;-54
2023/01/10 12:11:16;;;;;;;19.77;10.87;;;9.40;99.90;;;;;;5250593;28;20500;-51
2023/01/10 12:13:52;;;;;;;16.83;8.63;;;9.30;99.90;;;;;;5253232;28;20218;-53
2023/01/10 12:16:28;;;;;;;14.47;6.87;;;9.30;99.90;;;;;;5225894;28;20622;-52
2023/01/10 12:19:01;;;;;;;17.23;4.30;;;9.20;99.90;;;;;;5219050;28;20822;-53
2023/01/10 12:21:42;;;;;;;5.87;3.17;;;9.30;99.90;;;;;;5242773;28;20464;-53
2023/01/10 12:24:44;;;;;;;15.97;3.53;;;9.20;99.90;;;;;;5228442;28;20423;-53
2023/01/10 12:27:16;;;;;;;3.17;2.90;;;9.10;99.90;;;;;;5220135;28;20435;-52
2023/01/10 12:30:06;;;;;;;8.70;3.80;;;8.90;99.90;;;;;;5241345;28;20830;-54
2023/01/10 12:32:43;;;;;;;16.50;4.03;;;8.80;99.90;;;;;;5244988;28;20810;-53
2023/01/10 12:35:22;;;;;;;13.97;4.23;;;8.90;99.90;;;;;;5249470;28;20785;-53
2023/01/10 12:38:01;;;;;;;7.63;3.03;;;8.80;99.90;;;;;;5244929;28;20930;-53
2023/01/10 12:40:44;;;;;;;18.47;4.43;;;9.00;99.90;;;;;;5241773;28;20450;-52
2023/01/10 12:46:31;;;;;;;12.90;4.37;;;8.70;99.90;;;;;;5235461;28;20458;-51
2023/01/10 12:49:12;;;;;;;11.47;2.97;;;8.60;99.90;;;;;;5242540;28;20517;-52
2023/01/10 12:51:46;;;;;;;7.60;3.20;;;8.60;99.90;;;;;;5235442;28;20968;-51
2023/01/10 12:54:29;;;;;;;8.77;3.13;;;8.50;99.90;;;;;;5244327;28;20437;-54
2023/01/10 12:57:07;;;;;;;11.83;3.87;;;8.70;99.90;;;;;;5224680;28;20440;-51
2023/01/10 12:59:41;;;;;;;11.10;3.40;;;8.80;99.90;;;;;;5246382;28;20983;-52
2023/01/10 13:02:20;;;;;;;17.57;4.40;;;9.00;99.90;;;;;;5250914;28;20640;-53
2023/01/10 13:04:55;;;;;;;11.50;4.00;;;8.90;99.90;;;;;;5247901;28;20526;-52
2023/01/10 13:07:32;;;;;;;9.10;3.13;;;9.00;99.90;;;;;;5219874;28;20794;-49
2023/01/10 13:10:05;;;;;;;7.97;3.00;;;8.90;99.90;;;;;;5226773;28;20443;-51
2023/01/10 13:12:40;;;;;;;13.03;2.87;;;9.10;99.90;;;;;;5237334;28;20940;-53
2023/01/10 13:15:45;;;;;;;25.03;8.00;;;9.00;99.90;;;;;;5234204;28;20787;-52
2023/01/10 13:18:26;;;;;;;11.60;4.80;;;8.90;99.90;;;;;;5245819;28;20548;-52
2023/01/10 13:21:12;;;;;;;10.03;3.10;;;8.80;99.90;;;;;;5222346;28;20471;-51
2023/01/10 13:23:56;;;;;;;10.10;3.83;;;8.90;99.90;;;;;;5243787;28;20440;-50
2023/01/10 13:26:47;;;;;;;7.30;3.03;;;8.80;99.90;;;;;;5227955;28;20528;-51
2023/01/10 13:29:21;;;;;;;16.53;3.00;;;8.80;99.90;;;;;;5246000;28;20817;-52
2023/01/10 13:31:56;;;;;;;13.70;3.43;;;8.70;99.90;;;;;;5247449;28;20443;-50
2023/01/10 13:34:33;;;;;;;13.13;3.43;;;8.90;99.90;;;;;;5251225;28;20442;-53
2023/01/10 13:37:11;;;;;;;12.47;2.73;;;8.80;99.90;;;;;;5252632;28;20436;-51
2023/01/10 13:39:57;;;;;;;12.60;3.60;;;8.70;99.90;;;;;;5231184;28;20499;-53
2023/01/10 13:45:29;;;;;;;14.57;3.70;;;8.70;99.90;;;;;;5248063;28;20504;-52
2023/01/10 13:48:02;;;;;;;13.33;2.87;;;8.50;99.90;;;;;;5236824;28;20457;-52
2023/01/10 13:50:34;;;;;;;13.60;3.50;;;8.60;99.90;;;;;;5251156;28;20489;-52
2023/01/10 13:53:11;;;;;;;9.10;3.63;;;8.50;99.90;;;;;;5224777;28;20784;-52